Time;durP1;ratioP1;P1;durP2;ratioP2;P2;SDS_P1;SDS_P2;PMS_P1;PMS_P2;Temp;Humidity;BMP_temperature;BMP_pressure;BME280_temperature;BME280_humidity;BME280_pressure;Samples;Min_cycle;Max_cycle;Signal;HPM_P1;HPM_P2
2021/04/23 11:45:32;;;;;;;10.25;5.10;;;18.60;43.20;;;;;;5004992;28;72882;-68
2021/04/23 11:48:08;;;;;;;13.50;4.97;;;18.60;41.20;;;;;;5007764;28;83255;-66
2021/04/23 11:50:35;;;;;;;12.27;4.40;;;18.90;41.30;;;;;;5008164;28;20034;-66
2021/04/23 11:53:06;;;;;;;8.68;4.70;;;19.00;40.50;;;;;;5008319;28;20552;-65
2021/04/23 11:55:36;;;;;;;13.60;4.85;;;19.20;39.60;;;;;;5009059;28;20387;-67
2021/04/23 11:58:03;;;;;;;11.00;4.57;;;19.40;40.10;;;;;;5007887;28;20061;-62
2021/04/23 12:00:29;;;;;;;10.90;4.45;;;19.40;39.40;;;;;;5007811;28;20046;-67
2021/04/23 12:03:04;;;;;;;7.07;3.85;;;19.40;39.00;;;;;;5008358;28;20034;-67
2021/04/23 12:05:35;;;;;;;12.10;4.22;;;19.50;38.50;;;;;;5004690;28;20035;-67
2021/04/23 12:08:17;;;;;;;9.25;4.53;;;19.60;39.20;;;;;;5007225;28;20401;-67
2021/04/23 12:10:52;;;;;;;11.45;4.53;;;19.70;40.00;;;;;;5004817;28;20406;-67
2021/04/23 12:13:24;;;;;;;10.95;4.95;;;19.80;40.20;;;;;;5007756;28;20057;-66
2021/04/23 12:15:52;;;;;;;10.00;4.80;;;19.90;39.80;;;;;;5007450;28;20034;-66
2021/04/23 12:18:17;;;;;;;7.43;4.15;;;19.90;39.80;;;;;;5007978;28;20034;-66
2021/04/23 12:20:45;;;;;;;10.48;4.80;;;19.90;39.90;;;;;;5007214;28;20517;-66
2021/04/23 12:23:14;;;;;;;13.63;4.55;;;19.90;39.80;;;;;;5007333;28;20514;-67
2021/04/23 12:25:41;;;;;;;11.98;4.30;;;20.00;40.00;;;;;;5004713;28;20113;-66
2021/04/23 12:28:26;;;;;;;14.35;4.30;;;20.00;39.80;;;;;;5002882;28;20032;-67
2021/04/23 12:31:01;;;;;;;15.90;4.70;;;20.00;39.50;;;;;;5002354;28;20498;-67
2021/04/23 12:33:45;;;;;;;16.90;4.47;;;20.00;39.70;;;;;;5002225;28;20518;-66
2021/04/23 12:36:24;;;;;;;8.45;3.92;;;20.00;39.70;;;;;;5002327;28;20026;-66
2021/04/23 12:38:54;;;;;;;12.55;5.07;;;20.10;39.50;;;;;;5003207;28;20113;-66
2021/04/23 12:41:34;;;;;;;10.77;4.80;;;20.10;38.80;;;;;;5005801;28;20083;-66
2021/04/23 12:44:09;;;;;;;9.40;4.68;;;20.00;38.50;;;;;;5005789;28;20034;-67
2021/04/23 12:46:54;;;;;;;9.65;4.15;;;20.00;39.20;;;;;;5004117;28;20034;-67
2021/04/23 12:49:20;;;;;;;6.88;3.95;;;20.00;38.80;;;;;;5005778;28;20121;-66
2021/04/23 12:51:52;;;;;;;9.80;4.15;;;19.90;38.10;;;;;;5001993;28;20117;-66
2021/04/23 12:54:28;;;;;;;11.65;4.30;;;19.90;38.70;;;;;;5001762;28;20046;-67
2021/04/23 12:56:55;;;;;;;10.63;3.75;;;20.00;39.10;;;;;;4993629;28;20049;-67
2021/04/23 12:59:38;;;;;;;9.52;4.20;;;20.00;39.20;;;;;;4991861;28;20042;-64
2021/04/23 13:02:03;;;;;;;8.07;3.90;;;20.00;39.40;;;;;;4994320;28;20031;-66
2021/04/23 13:04:29;;;;;;;9.68;3.83;;;20.10;38.40;;;;;;4994486;28;20029;-67
2021/04/23 13:06:55;;;;;;;9.95;4.50;;;20.10;38.40;;;;;;4993387;28;20031;-67
2021/04/23 13:09:28;;;;;;;15.57;4.50;;;20.10;38.90;;;;;;4993436;28;20230;-67
2021/04/23 13:11:53;;;;;;;8.53;4.13;;;20.00;38.30;;;;;;4991950;28;20014;-67
2021/04/23 13:14:22;;;;;;;8.23;3.75;;;20.00;37.70;;;;;;4992469;28;20410;-66
2021/04/23 13:17:01;;;;;;;9.20;3.72;;;19.90;37.30;;;;;;4993700;28;20046;-67
2021/04/23 13:19:55;;;;;;;8.32;3.83;;;20.00;37.80;;;;;;4992962;28;20137;-65
2021/04/23 13:22:31;;;;;;;10.43;4.20;;;19.90;38.00;;;;;;4992898;28;20030;-67
2021/04/23 13:25:12;;;;;;;12.65;3.70;;;20.00;38.60;;;;;;4993655;28;20100;-65
2021/04/23 13:27:40;;;;;;;6.85;3.40;;;20.00;38.90;;;;;;4992311;28;20561;-66
2021/04/23 13:30:07;;;;;;;9.32;4.38;;;20.10;38.10;;;;;;4989306;28;20502;-67
2021/04/23 13:33:20;;;;;;;15.32;4.47;;;20.10;37.80;;;;;;4990137;28;20023;-67
2021/04/23 13:35:51;;;;;;;6.47;3.88;;;20.10;37.70;;;;;;4982039;28;20096;-67
2021/04/23 13:38:21;;;;;;;9.68;3.78;;;20.10;38.10;;;;;;4993629;28;20406;-67
2021/04/23 13:40:46;;;;;;;8.45;4.03;;;20.10;37.90;;;;;;4993568;28;20030;-66
2021/04/23 13:43:13;;;;;;;11.90;4.30;;;20.10;37.70;;;;;;4992823;28;20033;-66
2021/04/23 13:45:38;;;;;;;9.15;4.05;;;20.10;37.30;;;;;;4993166;28;20045;-65
2021/04/23 13:48:17;;;;;;;16.38;3.90;;;20.10;37.30;;;;;;4993112;28;20022;-67
2021/04/23 13:50:43;;;;;;;41.78;5.78;;;20.10;38.20;;;;;;4992485;28;20030;-63
2021/04/23 13:53:08;;;;;;;45.20;5.35;;;20.20;38.00;;;;;;4993192;28;20076;-63
2021/04/23 13:55:34;;;;;;;31.95;4.07;;;20.20;39.10;;;;;;4992494;28;20494;-63
2021/04/23 13:58:06;;;;;;;18.20;4.80;;;20.50;39.50;;;;;;4992279;28;20495;-65
2021/04/23 14:00:52;;;;;;;30.23;4.68;;;20.60;39.30;;;;;;4993074;28;20038;-65
2021/04/23 14:03:17;;;;;;;25.88;4.78;;;20.70;39.90;;;;;;4991992;28;20445;-65
2021/04/23 14:05:43;;;;;;;23.88;4.53;;;20.80;40.00;;;;;;4992296;28;20491;-65
2021/04/23 14:08:09;;;;;;;21.85;4.88;;;20.90;40.00;;;;;;4991865;28;20125;-66
2021/04/23 14:10:41;;;;;;;24.95;4.30;;;20.90;40.20;;;;;;4989448;28;20514;-65
2021/04/23 14:13:06;;;;;;;13.55;4.60;;;21.10;40.80;;;;;;4990490;28;20033;-66
2021/04/23 14:15:32;;;;;;;13.65;3.85;;;21.20;41.20;;;;;;4992578;28;20022;-65
2021/04/23 14:17:58;;;;;;;12.93;3.70;;;21.30;41.80;;;;;;4992600;28;20029;-66
2021/04/23 14:20:23;;;;;;;18.00;3.88;;;21.30;41.50;;;;;;4992179;28;20026;-65
2021/04/23 14:22:50;;;;;;;19.27;3.65;;;21.40;41.40;;;;;;4992898;28;20033;-65
2021/04/23 14:25:15;;;;;;;12.98;3.53;;;21.40;41.40;;;;;;4992966;28;20029;-65
2021/04/23 14:27:41;;;;;;;13.38;3.15;;;21.50;41.30;;;;;;4990375;28;20556;-65
2021/04/23 14:30:07;;;;;;;14.32;3.80;;;21.60;41.40;;;;;;4985178;28;20486;-64
2021/04/23 14:32:34;;;;;;;12.52;3.83;;;21.70;41.40;;;;;;4988801;28;20117;-61
2021/04/23 14:35:00;;;;;;;11.52;3.65;;;21.70;41.30;;;;;;4990830;28;20049;-64
2021/04/23 14:37:26;;;;;;;13.48;3.17;;;21.70;41.30;;;;;;4988361;28;20030;-62
2021/04/23 14:39:52;;;;;;;9.90;3.17;;;21.80;41.40;;;;;;4987159;28;20171;-64
2021/04/23 14:42:18;;;;;;;11.35;3.35;;;21.80;41.50;;;;;;4987279;28;20041;-66
2021/04/23 14:44:44;;;;;;;15.85;3.45;;;21.90;41.60;;;;;;4987264;28;20076;-65
2021/04/23 14:47:12;;;;;;;10.60;3.25;;;21.90;41.70;;;;;;4991765;28;20034;-66
2021/04/23 14:49:39;;;;;;;11.55;3.30;;;21.90;42.10;;;;;;4991455;28;20034;-66
2021/04/23 14:52:05;;;;;;;14.48;3.10;;;21.90;41.90;;;;;;4992018;28;20414;-66
2021/04/23 14:54:31;;;;;;;8.65;2.78;;;21.90;42.00;;;;;;4990188;28;20177;-65
2021/04/23 14:56:57;;;;;;;10.75;3.47;;;22.00;42.10;;;;;;4991205;28;20498;-65
2021/04/23 14:59:23;;;;;;;12.05;3.38;;;22.00;42.10;;;;;;4991328;28;20069;-66
2021/04/23 15:01:49;;;;;;;10.55;2.70;;;22.10;42.20;;;;;;4991853;28;20093;-66
2021/04/23 15:04:15;;;;;;;7.13;2.60;;;22.10;42.30;;;;;;4991509;28;20113;-66
2021/04/23 15:06:41;;;;;;;8.25;2.55;;;22.10;42.40;;;;;;4991462;28;20114;-65
2021/04/23 15:09:09;;;;;;;9.60;3.05;;;22.20;42.50;;;;;;4990959;28;20145;-66
2021/04/23 15:11:36;;;;;;;10.07;3.33;;;22.20;42.50;;;;;;4991175;28;20027;-66
2021/04/23 15:14:02;;;;;;;7.60;2.60;;;22.30;42.50;;;;;;4991000;28;20034;-66
2021/04/23 15:16:30;;;;;;;5.10;2.38;;;22.30;42.60;;;;;;4991846;28;20027;-65
2021/04/23 15:18:56;;;;;;;7.18;2.58;;;22.40;42.60;;;;;;4990582;28;20121;-66
2021/04/23 15:21:22;;;;;;;6.10;2.17;;;22.40;42.70;;;;;;4991204;28;20751;-65
2021/04/23 15:23:49;;;;;;;7.97;2.38;;;22.40;42.70;;;;;;4990864;28;20023;-66
2021/04/23 15:26:15;;;;;;;6.68;2.67;;;22.40;42.80;;;;;;4988451;28;20030;-66
2021/04/23 15:28:41;;;;;;;9.77;2.88;;;22.40;42.80;;;;;;4987711;28;20100;-66
2021/04/23 15:31:07;;;;;;;6.75;2.25;;;22.40;42.80;;;;;;4987406;28;20097;-66
2021/04/23 15:33:33;;;;;;;12.00;2.50;;;22.40;42.80;;;;;;4990689;28;20046;-66
2021/04/23 15:35:59;;;;;;;8.45;2.50;;;22.40;42.90;;;;;;4991079;28;20499;-66
2021/04/23 15:38:25;;;;;;;6.22;2.20;;;22.40;42.90;;;;;;4990927;28;20472;-66
2021/04/23 15:40:53;;;;;;;6.55;2.30;;;22.40;43.00;;;;;;4990605;28;20398;-66
2021/04/23 15:43:19;;;;;;;9.18;2.20;;;22.50;43.00;;;;;;4991201;28;20051;-66
2021/04/23 15:45:51;;;;;;;5.53;2.10;;;22.50;43.00;;;;;;4990978;28;20508;-66
2021/04/23 15:48:17;;;;;;;7.53;2.13;;;22.50;43.20;;;;;;4990345;28;20112;-67
2021/04/23 15:50:49;;;;;;;6.43;2.13;;;22.50;43.30;;;;;;4990797;28;20405;-66
2021/04/23 15:53:17;;;;;;;6.30;2.17;;;22.50;43.20;;;;;;4990672;28;20126;-65
2021/04/23 15:55:45;;;;;;;7.28;2.55;;;22.60;43.20;;;;;;4990531;28;20056;-66
2021/04/23 15:58:11;;;;;;;5.75;2.30;;;22.60;43.20;;;;;;4991163;28;20058;-67
2021/04/23 16:00:38;;;;;;;6.47;2.10;;;22.60;43.20;;;;;;4990963;28;20536;-67
2021/04/23 16:03:05;;;;;;;6.07;2.25;;;22.60;43.10;;;;;;4990264;28;20025;-65
2021/04/23 16:05:31;;;;;;;7.32;2.35;;;22.70;43.30;;;;;;4987876;28;20059;-67
2021/04/23 16:07:57;;;;;;;6.18;2.10;;;22.70;43.30;;;;;;4988231;28;20036;-65
2021/04/23 16:10:23;;;;;;;6.13;2.00;;;22.70;43.40;;;;;;4985295;28;20030;-66
2021/04/23 16:12:52;;;;;;;6.20;2.20;;;22.70;43.40;;;;;;4989332;28;20509;-66
2021/04/23 16:15:20;;;;;;;5.30;1.88;;;22.70;43.40;;;;;;4990510;28;20116;-65
2021/04/23 16:17:48;;;;;;;4.15;1.95;;;22.70;43.40;;;;;;4988997;28;20081;-66
2021/04/23 16:20:15;;;;;;;4.90;2.20;;;22.70;43.50;;;;;;5005912;28;20109;-66
2021/04/23 16:22:41;;;;;;;5.40;2.10;;;22.70;43.50;;;;;;4990584;28;20106;-66
2021/04/23 16:25:09;;;;;;;4.22;2.00;;;22.80;43.60;;;;;;4990427;28;20037;-66
2021/04/23 16:27:35;;;;;;;5.25;2.17;;;22.80;43.50;;;;;;4990052;28;20040;-66
2021/04/23 16:30:02;;;;;;;7.25;1.90;;;22.70;43.40;;;;;;4991008;28;20022;-66
2021/04/23 16:32:28;;;;;;;4.85;1.95;;;22.80;43.50;;;;;;4993898;28;20104;-66
2021/04/23 16:34:54;;;;;;;6.53;2.10;;;22.70;43.50;;;;;;4994530;28;20053;-66
2021/04/23 16:37:22;;;;;;;3.42;1.55;;;22.80;43.60;;;;;;4994544;28;20030;-65
2021/04/23 16:39:48;;;;;;;7.32;2.17;;;22.80;43.60;;;;;;4987889;28;20081;-66
2021/04/23 16:42:14;;;;;;;5.28;1.73;;;22.80;43.70;;;;;;4989772;28;20030;-66
2021/04/23 16:44:41;;;;;;;5.03;2.00;;;22.80;43.70;;;;;;4993924;28;20058;-64
2021/04/23 16:47:07;;;;;;;4.68;1.90;;;22.80;43.70;;;;;;4993487;28;20553;-64
2021/04/23 16:49:33;;;;;;;5.10;2.13;;;22.80;43.90;;;;;;4994747;28;20509;-67
2021/04/23 16:51:59;;;;;;;4.05;1.90;;;22.80;43.80;;;;;;4993525;28;20116;-67
2021/04/23 16:54:26;;;;;;;5.13;1.80;;;22.90;43.80;;;;;;4993375;28;20117;-66
2021/04/23 17:22:45;;;;;;;4.88;2.20;;;22.40;44.40;;;;;;5518585;23;22088;-63
2021/04/23 17:25:13;;;;;;;4.05;1.75;;;22.30;44.50;;;;;;5007012;28;20441;-66
2021/04/23 17:27:39;;;;;;;4.75;2.05;;;22.20;44.60;;;;;;4997543;28;20018;-64
2021/04/23 17:30:07;;;;;;;4.65;2.13;;;22.10;44.60;;;;;;5009375;28;20034;-65
2021/04/23 17:32:33;;;;;;;5.47;1.88;;;22.10;44.70;;;;;;5006066;28;20088;-67
2021/04/23 17:34:59;;;;;;;5.60;2.10;;;22.20;44.70;;;;;;5008387;28;20026;-65
2021/04/23 17:37:25;;;;;;;7.07;2.15;;;22.20;44.70;;;;;;5008092;28;20038;-65
2021/04/23 17:39:51;;;;;;;5.30;2.28;;;22.20;44.70;;;;;;5010670;28;20028;-66
2021/04/23 17:42:18;;;;;;;6.30;2.05;;;22.30;44.80;;;;;;5010206;28;20030;-66
2021/04/23 17:44:45;;;;;;;4.72;2.13;;;22.30;44.70;;;;;;5008454;28;20038;-66
2021/04/23 17:47:11;;;;;;;6.00;2.33;;;22.40;44.70;;;;;;5006230;28;20030;-67
2021/04/23 17:49:37;;;;;;;4.82;1.92;;;22.40;44.70;;;;;;5008061;28;20022;-66
2021/04/23 17:52:04;;;;;;;6.68;2.40;;;22.40;44.80;;;;;;5009103;28;20022;-65
2021/04/23 17:54:30;;;;;;;6.25;2.50;;;22.40;44.80;;;;;;5010614;28;20045;-66
2021/04/23 17:56:56;;;;;;;6.10;1.90;;;22.50;44.80;;;;;;5008668;28;20493;-65
2021/04/23 17:59:22;;;;;;;4.43;2.20;;;22.50;44.80;;;;;;5007848;28;20057;-66
2021/04/23 18:01:50;;;;;;;4.65;2.00;;;22.60;44.80;;;;;;5005852;28;20034;-64
2021/04/23 18:04:16;;;;;;;5.43;2.05;;;22.60;44.80;;;;;;5008069;28;20038;-66
2021/04/23 18:06:42;;;;;;;6.90;2.20;;;22.60;44.80;;;;;;5011542;28;20021;-65
2021/04/23 18:09:09;;;;;;;4.93;2.50;;;22.60;44.80;;;;;;5007851;28;20465;-64
2021/04/23 18:11:35;;;;;;;3.85;1.73;;;22.60;44.80;;;;;;5008014;28;20062;-65
2021/04/23 18:14:01;;;;;;;5.75;2.40;;;22.70;44.90;;;;;;5007275;28;20038;-66
2021/04/23 18:16:28;;;;;;;5.68;2.17;;;22.60;44.90;;;;;;5006816;28;20445;-66
2021/04/23 18:18:57;;;;;;;4.05;1.92;;;22.70;44.90;;;;;;5010234;28;20014;-65
2021/04/23 18:21:23;;;;;;;6.18;2.47;;;22.70;44.90;;;;;;5009887;28;20307;-66
2021/04/23 18:23:49;;;;;;;4.38;2.00;;;22.70;44.90;;;;;;5007191;28;20054;-66
2021/04/23 18:26:14;;;;;;;4.07;1.98;;;22.70;45.00;;;;;;5007560;28;20030;-64
2021/04/23 18:28:40;;;;;;;5.15;2.40;;;22.80;45.00;;;;;;5006976;28;20398;-66
2021/04/23 18:31:08;;;;;;;4.90;2.35;;;22.70;45.00;;;;;;5007344;28;20034;-66
2021/04/23 18:33:35;;;;;;;4.75;2.40;;;22.70;45.00;;;;;;5011194;28;20073;-66
2021/04/23 18:36:06;;;;;;;5.35;2.40;;;22.80;45.00;;;;;;5007585;28;20602;-66
2021/04/23 18:38:33;;;;;;;4.20;2.28;;;22.80;45.10;;;;;;5006531;28;20026;-66
2021/04/23 18:41:01;;;;;;;4.75;2.25;;;22.80;45.10;;;;;;5007317;28;20387;-66
2021/04/23 18:43:26;;;;;;;5.82;2.70;;;22.80;45.10;;;;;;5006826;28;20558;-66
2021/04/23 18:45:53;;;;;;;7.25;2.50;;;22.80;45.10;;;;;;5008845;28;20146;-66
2021/04/23 18:48:19;;;;;;;5.85;2.63;;;22.80;45.20;;;;;;5009217;28;20474;-66
2021/04/23 18:50:45;;;;;;;6.13;2.70;;;22.80;45.20;;;;;;5007188;28;20018;-65
2021/04/23 18:53:11;;;;;;;5.90;2.63;;;22.80;45.20;;;;;;5005768;28;20084;-67
2021/04/23 18:55:37;;;;;;;4.68;2.35;;;22.80;45.30;;;;;;5007162;28;20498;-66
2021/04/23 18:58:03;;;;;;;4.82;2.50;;;22.80;45.30;;;;;;5007902;28;20022;-66
2021/04/23 19:00:30;;;;;;;6.97;2.80;;;22.80;45.30;;;;;;5008280;28;20421;-66
2021/04/23 19:02:56;;;;;;;4.65;2.58;;;22.80;45.30;;;;;;5007460;28;20478;-66
2021/04/23 19:05:23;;;;;;;7.68;3.15;;;22.80;45.30;;;;;;5005336;28;20030;-66
2021/04/23 19:07:49;;;;;;;6.00;2.88;;;22.80;45.30;;;;;;5005754;28;20022;-66
2021/04/23 19:10:15;;;;;;;6.18;2.70;;;22.80;45.40;;;;;;5007006;28;20121;-65
2021/04/23 19:12:43;;;;;;;5.53;2.80;;;22.80;45.40;;;;;;5010519;28;20450;-66
2021/04/23 19:15:12;;;;;;;5.72;3.22;;;22.80;45.40;;;;;;5007104;28;20034;-65
2021/04/23 19:17:39;;;;;;;7.22;3.05;;;22.80;45.40;;;;;;5006677;28;20512;-66
2021/04/23 19:20:07;;;;;;;6.25;3.30;;;22.80;45.40;;;;;;5006294;28;20033;-66
2021/04/23 19:22:33;;;;;;;5.47;2.90;;;22.80;45.40;;;;;;5005935;28;20034;-66
2021/04/23 19:24:59;;;;;;;6.05;3.25;;;22.80;45.50;;;;;;5008338;28;20038;-66
2021/04/23 19:27:25;;;;;;;5.75;3.17;;;22.80;45.50;;;;;;5008974;28;20026;-66
2021/04/23 19:29:51;;;;;;;6.05;3.08;;;22.80;45.50;;;;;;5004875;28;20034;-66
2021/04/23 19:32:17;;;;;;;6.05;3.20;;;22.80;45.60;;;;;;5006648;28;20073;-66
2021/04/23 19:34:45;;;;;;;6.43;3.28;;;22.80;45.60;;;;;;5005976;28;20038;-66
2021/04/23 19:37:10;;;;;;;7.45;3.33;;;22.80;45.60;;;;;;5004615;28;20029;-66
2021/04/23 19:39:37;;;;;;;6.18;3.35;;;22.80;45.60;;;;;;5010892;28;20038;-66
2021/04/23 19:42:03;;;;;;;6.63;3.75;;;22.80;45.60;;;;;;5006271;28;20116;-65
2021/04/23 19:44:29;;;;;;;5.85;3.42;;;22.80;45.60;;;;;;5005412;28;20092;-66
2021/04/23 19:46:55;;;;;;;6.50;3.50;;;22.80;45.70;;;;;;5006277;28;20021;-66
2021/04/23 19:49:21;;;;;;;7.15;3.75;;;22.90;45.70;;;;;;5005740;28;20073;-66
2021/04/23 19:51:47;;;;;;;6.05;3.38;;;22.90;45.70;;;;;;5009050;28;20054;-66
2021/04/23 19:54:13;;;;;;;6.70;4.05;;;22.90;45.70;;;;;;5007693;28;20038;-66
2021/04/23 19:56:40;;;;;;;6.75;3.92;;;22.80;45.70;;;;;;5006145;28;20057;-66
2021/04/23 19:59:06;;;;;;;7.40;4.00;;;22.90;45.70;;;;;;5004189;28;20026;-66
2021/04/23 20:01:32;;;;;;;7.35;4.20;;;22.80;45.70;;;;;;5005082;28;20030;-66
2021/04/23 20:03:58;;;;;;;7.80;4.32;;;22.90;45.80;;;;;;5007861;28;20044;-66
2021/04/23 20:06:23;;;;;;;8.63;4.55;;;22.90;45.80;;;;;;5010746;28;20486;-66
2021/04/23 20:08:50;;;;;;;7.53;4.45;;;22.80;45.80;;;;;;5012635;28;20083;-66
2021/04/23 20:11:16;;;;;;;8.35;5.40;;;22.90;45.80;;;;;;5009864;28;20037;-66
2021/04/23 20:13:43;;;;;;;7.50;4.85;;;22.90;45.80;;;;;;5008975;28;20494;-66
2021/04/23 20:16:10;;;;;;;9.73;5.47;;;22.90;45.80;;;;;;5010423;28;20447;-66
2021/04/23 20:18:36;;;;;;;9.07;6.72;;;22.90;45.80;;;;;;5013753;28;20106;-66
2021/04/23 20:21:02;;;;;;;8.40;6.25;;;22.90;45.80;;;;;;5008906;28;20034;-64
2021/04/23 20:23:28;;;;;;;9.90;7.20;;;22.90;45.90;;;;;;5009609;28;20085;-66
2021/04/23 20:25:55;;;;;;;9.52;6.75;;;22.90;45.90;;;;;;5009505;28;20458;-66
2021/04/23 20:28:22;;;;;;;11.68;8.20;;;22.90;45.90;;;;;;5009205;28;20027;-66
2021/04/23 20:30:48;;;;;;;12.98;9.60;;;22.90;45.90;;;;;;5012646;28;20032;-66
2021/04/23 20:33:13;;;;;;;11.63;9.30;;;22.90;45.90;;;;;;5010727;28;20018;-66
2021/04/23 20:35:39;;;;;;;12.15;9.80;;;22.90;45.90;;;;;;5010017;28;20038;-66
2021/04/23 20:38:05;;;;;;;24.42;18.38;;;22.90;45.90;;;;;;5008718;28;20104;-86
2021/04/23 20:40:31;;;;;;;21.27;15.98;;;22.90;45.00;;;;;;5009540;28;20054;-62
2021/04/23 20:42:56;;;;;;;58.55;48.33;;;22.80;44.90;;;;;;5010223;28;20026;-62
2021/04/23 20:45:22;;;;;;;54.20;45.03;;;22.60;42.30;;;;;;5011251;28;20030;-71
2021/04/23 20:47:50;;;;;;;50.97;35.90;;;22.40;43.40;;;;;;5008247;28;20023;-65
2021/04/23 20:50:15;;;;;;;41.70;34.13;;;22.40;44.60;;;;;;5009274;28;20073;-65
2021/04/23 20:52:41;;;;;;;48.17;31.60;;;22.40;45.00;;;;;;5008399;28;20064;-66
2021/04/23 20:55:07;;;;;;;39.75;32.58;;;22.40;45.60;;;;;;5010062;28;20533;-66
2021/04/23 20:57:33;;;;;;;43.92;31.88;;;22.50;45.80;;;;;;5012757;28;20030;-66
2021/04/23 20:59:58;;;;;;;39.72;31.90;;;22.50;45.80;;;;;;5007698;28;20567;-65
2021/04/23 21:02:24;;;;;;;39.45;31.10;;;22.60;46.00;;;;;;5008822;28;20490;-66
2021/04/23 21:04:50;;;;;;;37.05;31.42;;;22.70;46.10;;;;;;5009127;28;20161;-66
2021/04/23 21:07:16;;;;;;;35.53;30.98;;;22.80;46.20;;;;;;5008171;28;20042;-66
2021/04/23 21:09:41;;;;;;;38.03;29.67;;;22.80;46.20;;;;;;5013201;28;20038;-66
2021/04/23 21:12:07;;;;;;;37.10;30.95;;;22.80;46.10;;;;;;5009808;28;20026;-65
2021/04/23 21:14:33;;;;;;;36.60;28.92;;;22.90;46.10;;;;;;5008003;28;20505;-66
2021/04/23 21:16:58;;;;;;;33.80;30.20;;;22.90;45.90;;;;;;5008309;28;20046;-65
2021/04/23 21:19:24;;;;;;;32.53;28.40;;;22.90;45.80;;;;;;5008894;28;20159;-66
2021/04/23 21:21:50;;;;;;;32.85;29.40;;;23.00;45.90;;;;;;5011198;28;20084;-66
2021/04/23 21:24:15;;;;;;;34.05;28.10;;;23.00;45.90;;;;;;5010292;28;20050;-65
2021/04/23 21:26:44;;;;;;;33.65;27.58;;;23.00;45.90;;;;;;5008639;28;20065;-66
2021/04/23 21:29:10;;;;;;;37.45;28.25;;;23.10;46.00;;;;;;5007454;28;20022;-66
2021/04/23 21:31:37;;;;;;;33.80;28.38;;;23.10;45.90;;;;;;5008432;28;20041;-66
2021/04/23 21:34:07;;;;;;;33.53;26.95;;;23.10;45.90;;;;;;5009777;28;20084;-65
2021/04/23 21:36:33;;;;;;;29.52;26.23;;;23.10;46.00;;;;;;5011394;28;20140;-66
2021/04/23 21:38:59;;;;;;;34.08;27.10;;;23.10;46.00;;;;;;5009149;28;20076;-66
2021/04/23 21:41:25;;;;;;;31.70;27.83;;;23.10;46.10;;;;;;5008096;28;20026;-66
2021/04/23 21:43:51;;;;;;;31.75;25.90;;;23.20;46.10;;;;;;5007657;28;20033;-66
2021/04/23 21:46:17;;;;;;;27.88;24.88;;;23.20;46.10;;;;;;5008434;28;20033;-66
2021/04/23 21:48:42;;;;;;;27.65;24.80;;;23.10;46.10;;;;;;5012079;28;20026;-66
2021/04/23 21:51:08;;;;;;;28.65;24.67;;;23.20;46.10;;;;;;5008488;28;20080;-66
2021/04/23 21:53:34;;;;;;;28.67;24.48;;;23.20;46.10;;;;;;5008094;28;20402;-66
2021/04/23 21:55:59;;;;;;;27.17;24.15;;;23.20;46.20;;;;;;5007811;28;20053;-66
2021/04/23 21:58:25;;;;;;;26.33;23.13;;;23.20;46.10;;;;;;5006918;28;20054;-65
2021/04/23 22:00:53;;;;;;;28.80;23.92;;;23.20;46.20;;;;;;5011489;28;20029;-66
2021/04/23 22:03:20;;;;;;;26.48;22.77;;;23.20;46.20;;;;;;5010336;28;20030;-66
2021/04/23 22:05:45;;;;;;;27.15;22.33;;;23.20;46.20;;;;;;5008044;28;20037;-66
2021/04/23 22:08:11;;;;;;;25.92;23.13;;;23.20;46.30;;;;;;5007787;28;20037;-65
2021/04/23 22:10:37;;;;;;;26.38;22.17;;;23.30;46.30;;;;;;5008144;28;20014;-65
2021/04/23 22:13:03;;;;;;;25.30;21.88;;;23.20;46.30;;;;;;5008467;28;20498;-66
2021/04/23 22:15:28;;;;;;;23.67;20.23;;;23.30;46.80;;;;;;5011309;28;20125;-66
2021/04/23 22:17:54;;;;;;;25.25;20.38;;;23.20;46.60;;;;;;5008562;28;20029;-66
2021/04/23 22:20:20;;;;;;;24.75;20.25;;;23.30;46.70;;;;;;5007368;28;20030;-66
2021/04/23 22:22:45;;;;;;;22.98;20.23;;;23.20;46.80;;;;;;5007866;28;20026;-65
2021/04/23 22:25:13;;;;;;;22.90;19.60;;;23.30;46.70;;;;;;5008353;28;20151;-66
2021/04/23 22:27:38;;;;;;;22.77;19.08;;;23.20;46.80;;;;;;4995217;28;20485;-66
2021/04/23 22:30:07;;;;;;;21.60;18.50;;;23.20;46.80;;;;;;5008045;28;20053;-65
2021/04/23 22:32:32;;;;;;;20.70;17.20;;;23.30;46.80;;;;;;5007611;28;20022;-66
2021/04/23 22:34:58;;;;;;;20.10;17.77;;;23.30;46.90;;;;;;5006962;28;20410;-65
2021/04/23 22:37:23;;;;;;;20.80;17.65;;;23.20;46.90;;;;;;5007699;28;20529;-66
2021/04/23 22:39:49;;;;;;;18.80;16.17;;;23.30;46.90;;;;;;5026210;28;20057;-66
2021/04/23 22:42:15;;;;;;;21.20;16.88;;;23.30;47.00;;;;;;5008194;28;20096;-65
2021/04/23 22:44:40;;;;;;;20.45;16.58;;;23.30;46.90;;;;;;5007950;28;20038;-66
2021/04/23 22:47:06;;;;;;;17.65;15.52;;;23.30;47.00;;;;;;5007533;28;20382;-66
2021/04/23 22:49:31;;;;;;;18.73;15.73;;;23.20;47.00;;;;;;5006665;28;20037;-66
2021/04/23 22:51:57;;;;;;;18.15;15.57;;;23.30;47.00;;;;;;5009715;28;20022;-67
2021/04/23 22:54:23;;;;;;;18.70;14.95;;;23.30;47.10;;;;;;5009735;28;20379;-65
2021/04/23 22:56:49;;;;;;;19.05;15.43;;;23.30;46.90;;;;;;5006811;28;20549;-66
2021/04/23 22:59:14;;;;;;;18.73;14.55;;;23.30;46.80;;;;;;5007357;28;20431;-65
2021/04/23 23:01:40;;;;;;;15.07;13.48;;;23.30;46.80;;;;;;5007301;28;20025;-66
2021/04/23 23:04:06;;;;;;;18.27;13.90;;;23.30;46.90;;;;;;5007828;28;20056;-65
2021/04/23 23:06:31;;;;;;;14.18;12.48;;;23.30;46.90;;;;;;5010871;28;20524;-66
2021/04/23 23:08:57;;;;;;;19.13;13.30;;;23.20;46.90;;;;;;5007584;28;20029;-65
2021/04/23 23:11:23;;;;;;;15.93;12.57;;;23.30;46.90;;;;;;5006154;28;20417;-65
2021/04/23 23:13:48;;;;;;;14.63;12.32;;;23.30;46.90;;;;;;5006875;28;20463;-66
2021/04/23 23:16:14;;;;;;;14.52;11.80;;;23.20;46.90;;;;;;5007277;28;20474;-65
2021/04/23 23:18:39;;;;;;;13.52;11.50;;;23.20;47.00;;;;;;5010806;28;20029;-63
2021/04/23 23:21:05;;;;;;;14.88;12.05;;;23.30;47.00;;;;;;5007546;28;20474;-65
2021/04/23 23:23:31;;;;;;;16.17;11.23;;;23.20;47.00;;;;;;5006912;28;20053;-66
2021/04/23 23:25:56;;;;;;;12.57;10.95;;;23.30;47.50;;;;;;5006521;28;20485;-65
2021/04/23 23:28:22;;;;;;;15.60;11.45;;;23.30;47.40;;;;;;5005924;28;20038;-65
2021/04/23 23:30:48;;;;;;;15.60;10.27;;;23.30;47.40;;;;;;5010365;28;20093;-64
2021/04/23 23:33:13;;;;;;;13.70;9.77;;;23.30;47.40;;;;;;5008075;28;20038;-66
2021/04/23 23:35:39;;;;;;;12.98;10.95;;;23.20;47.40;;;;;;5006491;28;20030;-65
2021/04/23 23:38:05;;;;;;;13.57;9.45;;;23.20;47.40;;;;;;5005531;28;20029;-65
2021/04/23 23:40:30;;;;;;;11.65;9.10;;;23.30;47.60;;;;;;5006262;28;20034;-65
2021/04/23 23:42:56;;;;;;;12.20;8.80;;;23.30;47.60;;;;;;5008340;28;20111;-66
2021/04/23 23:45:21;;;;;;;13.23;9.80;;;23.30;47.60;;;;;;5009110;28;20390;-66
2021/04/23 23:47:47;;;;;;;11.38;8.10;;;23.30;47.40;;;;;;5007037;28;20032;-66
2021/04/23 23:50:18;;;;;;;11.15;8.55;;;23.30;47.30;;;;;;5005801;28;20113;-66
2021/04/23 23:52:44;;;;;;;11.88;8.48;;;23.30;47.50;;;;;;5006574;28;20117;-67
2021/04/23 23:55:10;;;;;;;9.65;7.32;;;23.30;47.40;;;;;;5006732;28;20038;-66
2021/04/23 23:57:36;;;;;;;11.07;7.72;;;23.30;47.40;;;;;;5009958;28;20030;-66
